sensor_id;sensor_type;location;lat;lon;timestamp;pressure;altitude;pressure_sealevel;temperature;humidity
85545;BME280;75982;52.834;13.846;2024-03-29T00:01:04;99240.50;;;7.75;66.62
85545;BME280;75982;52.834;13.846;2024-03-29T00:03:30;99239.28;;;7.81;66.75
85545;BME280;75982;52.834;13.846;2024-03-29T00:05:55;99237.84;;;7.90;65.81
85545;BME280;75982;52.834;13.846;2024-03-29T00:08:21;99242.44;;;7.99;65.04
85545;BME280;75982;52.834;13.846;2024-03-29T00:10:47;99247.19;;;7.92;65.44
85545;BME280;75982;52.834;13.846;2024-03-29T00:13:12;99250.16;;;7.86;65.80
85545;BME280;75982;52.834;13.846;2024-03-29T00:15:38;99261.50;;;7.85;65.70
85545;BME280;75982;52.834;13.846;2024-03-29T00:18:03;99265.75;;;7.86;65.56
85545;BME280;75982;52.834;13.846;2024-03-29T00:20:29;99271.75;;;7.87;65.54
85545;BME280;75982;52.834;13.846;2024-03-29T00:22:55;99271.13;;;7.83;65.77
85545;BME280;75982;52.834;13.846;2024-03-29T00:25:20;99266.72;;;7.98;65.01
85545;BME280;75982;52.834;13.846;2024-03-29T00:27:46;99284.03;;;7.97;65.08
85545;BME280;75982;52.834;13.846;2024-03-29T00:30:12;99281.75;;;7.93;65.56
85545;BME280;75982;52.834;13.846;2024-03-29T00:32:37;99276.25;;;7.97;65.26
85545;BME280;75982;52.834;13.846;2024-03-29T00:35:03;99278.13;;;7.95;65.34
85545;BME280;75982;52.834;13.846;2024-03-29T00:37:28;99270.63;;;7.91;65.60
85545;BME280;75982;52.834;13.846;2024-03-29T00:39:54;99274.06;;;7.91;65.82
85545;BME280;75982;52.834;13.846;2024-03-29T00:42:20;99270.16;;;7.98;65.58
85545;BME280;75982;52.834;13.846;2024-03-29T00:44:48;99282.91;;;8.01;65.72
85545;BME280;75982;52.834;13.846;2024-03-29T00:47:13;99283.16;;;8.11;65.60
85545;BME280;75982;52.834;13.846;2024-03-29T00:49:39;99298.09;;;8.07;65.36
85545;BME280;75982;52.834;13.846;2024-03-29T00:52:05;99298.44;;;8.15;65.46
85545;BME280;75982;52.834;13.846;2024-03-29T00:54:31;99306.13;;;8.17;65.51
85545;BME280;75982;52.834;13.846;2024-03-29T00:56:56;99306.38;;;8.27;65.12
85545;BME280;75982;52.834;13.846;2024-03-29T00:59:22;99302.69;;;8.31;65.21
85545;BME280;75982;52.834;13.846;2024-03-29T01:01:47;99316.47;;;8.31;65.53
85545;BME280;75982;52.834;13.846;2024-03-29T01:04:13;99310.47;;;8.31;65.17
85545;BME280;75982;52.834;13.846;2024-03-29T01:06:39;99320.22;;;8.40;65.20
85545;BME280;75982;52.834;13.846;2024-03-29T01:09:05;99319.19;;;8.42;66.27
85545;BME280;75982;52.834;13.846;2024-03-29T01:11:33;99308.16;;;8.39;66.80
85545;BME280;75982;52.834;13.846;2024-03-29T01:13:58;99308.91;;;8.41;66.87
85545;BME280;75982;52.834;13.846;2024-03-29T01:16:24;99309.75;;;8.41;67.73
85545;BME280;75982;52.834;13.846;2024-03-29T01:18:50;99309.31;;;8.35;68.12
85545;BME280;75982;52.834;13.846;2024-03-29T01:21:15;99306.41;;;8.39;67.33
85545;BME280;75982;52.834;13.846;2024-03-29T01:23:41;99307.44;;;8.37;67.20
85545;BME280;75982;52.834;13.846;2024-03-29T01:26:07;99313.88;;;8.31;67.91
85545;BME280;75982;52.834;13.846;2024-03-29T01:28:33;99314.03;;;8.28;67.51
85545;BME280;75982;52.834;13.846;2024-03-29T01:30:59;99311.31;;;8.17;68.85
85545;BME280;75982;52.834;13.846;2024-03-29T01:33:25;99314.53;;;8.20;67.75
85545;BME280;75982;52.834;13.846;2024-03-29T01:35:50;99315.28;;;8.22;68.00
85545;BME280;75982;52.834;13.846;2024-03-29T01:38:16;99316.94;;;8.23;67.64
85545;BME280;75982;52.834;13.846;2024-03-29T01:40:42;99316.06;;;8.10;67.90
85545;BME280;75982;52.834;13.846;2024-03-29T01:43:07;99314.59;;;8.06;67.30
85545;BME280;75982;52.834;13.846;2024-03-29T01:45:35;99316.41;;;7.92;68.75
85545;BME280;75982;52.834;13.846;2024-03-29T01:48:05;99329.75;;;7.86;68.33
85545;BME280;75982;52.834;13.846;2024-03-29T01:50:32;99332.84;;;7.78;68.96
85545;BME280;75982;52.834;13.846;2024-03-29T01:52:58;99322.81;;;7.86;69.11
85545;BME280;75982;52.834;13.846;2024-03-29T01:55:25;99327.19;;;7.71;69.42
85545;BME280;75982;52.834;13.846;2024-03-29T01:57:51;99325.09;;;7.64;69.16
85545;BME280;75982;52.834;13.846;2024-03-29T02:00:17;99331.31;;;7.61;69.96
85545;BME280;75982;52.834;13.846;2024-03-29T02:02:43;99333.06;;;7.61;69.88
85545;BME280;75982;52.834;13.846;2024-03-29T02:05:09;99342.50;;;7.62;70.06
85545;BME280;75982;52.834;13.846;2024-03-29T02:07:35;99332.25;;;7.46;70.60
85545;BME280;75982;52.834;13.846;2024-03-29T02:10:01;99342.03;;;7.55;70.28
85545;BME280;75982;52.834;13.846;2024-03-29T02:12:27;99340.19;;;7.57;70.96
85545;BME280;75982;52.834;13.846;2024-03-29T02:14:52;99339.28;;;7.44;71.52
85545;BME280;75982;52.834;13.846;2024-03-29T02:17:18;99340.69;;;7.36;72.02
85545;BME280;75982;52.834;13.846;2024-03-29T02:19:43;99343.63;;;7.30;72.51
85545;BME280;75982;52.834;13.846;2024-03-29T02:22:10;99348.44;;;7.21;72.31
85545;BME280;75982;52.834;13.846;2024-03-29T02:24:38;99354.66;;;7.33;72.10
85545;BME280;75982;52.834;13.846;2024-03-29T02:27:04;99358.09;;;7.19;73.85
85545;BME280;75982;52.834;13.846;2024-03-29T02:29:30;99347.78;;;7.04;73.52
85545;BME280;75982;52.834;13.846;2024-03-29T02:31:56;99336.72;;;7.02;74.52
85545;BME280;75982;52.834;13.846;2024-03-29T02:34:21;99347.22;;;6.99;75.03
85545;BME280;75982;52.834;13.846;2024-03-29T02:36:47;99361.38;;;6.93;74.91
85545;BME280;75982;52.834;13.846;2024-03-29T02:39:13;99358.63;;;6.96;74.91
85545;BME280;75982;52.834;13.846;2024-03-29T02:41:38;99355.44;;;6.91;75.01
85545;BME280;75982;52.834;13.846;2024-03-29T02:44:04;99360.34;;;6.82;75.73
85545;BME280;75982;52.834;13.846;2024-03-29T02:46:29;99358.69;;;6.81;75.79
85545;BME280;75982;52.834;13.846;2024-03-29T02:48:58;99366.16;;;6.71;76.59
85545;BME280;75982;52.834;13.846;2024-03-29T02:51:24;99361.31;;;6.65;77.25
85545;BME280;75982;52.834;13.846;2024-03-29T02:53:49;99365.94;;;6.60;77.56
85545;BME280;75982;52.834;13.846;2024-03-29T02:56:15;99363.16;;;6.63;76.98
85545;BME280;75982;52.834;13.846;2024-03-29T02:58:40;99356.56;;;6.57;77.91
85545;BME280;75982;52.834;13.846;2024-03-29T03:01:07;99363.25;;;6.61;77.02
85545;BME280;75982;52.834;13.846;2024-03-29T03:03:34;99362.59;;;6.58;76.90
85545;BME280;75982;52.834;13.846;2024-03-29T03:06:00;99361.06;;;6.40;78.13
85545;BME280;75982;52.834;13.846;2024-03-29T03:08:26;99371.56;;;6.52;77.85
85545;BME280;75982;52.834;13.846;2024-03-29T03:10:51;99359.91;;;6.45;77.95
85545;BME280;75982;52.834;13.846;2024-03-29T03:13:17;99366.34;;;6.38;77.73
85545;BME280;75982;52.834;13.846;2024-03-29T03:15:42;99377.91;;;6.47;77.54
85545;BME280;75982;52.834;13.846;2024-03-29T03:18:08;99383.25;;;6.44;77.68
85545;BME280;75982;52.834;13.846;2024-03-29T03:20:33;99373.81;;;6.43;77.56
85545;BME280;75982;52.834;13.846;2024-03-29T03:22:59;99377.28;;;6.27;78.04
85545;BME280;75982;52.834;13.846;2024-03-29T03:25:27;99383.81;;;6.19;79.31
85545;BME280;75982;52.834;13.846;2024-03-29T03:27:53;99388.63;;;6.25;78.16
85545;BME280;75982;52.834;13.846;2024-03-29T03:30:18;99387.63;;;6.27;78.84
85545;BME280;75982;52.834;13.846;2024-03-29T03:32:44;99384.19;;;6.27;78.56
85545;BME280;75982;52.834;13.846;2024-03-29T03:35:09;99395.66;;;6.23;78.38
85545;BME280;75982;52.834;13.846;2024-03-29T03:37:35;99396.47;;;6.23;78.42
85545;BME280;75982;52.834;13.846;2024-03-29T03:40:01;99403.16;;;6.12;78.79
85545;BME280;75982;52.834;13.846;2024-03-29T03:42:26;99404.41;;;6.05;79.68
85545;BME280;75982;52.834;13.846;2024-03-29T03:44:52;99408.75;;;6.04;78.96
85545;BME280;75982;52.834;13.846;2024-03-29T03:47:17;99405.50;;;6.01;79.59
85545;BME280;75982;52.834;13.846;2024-03-29T03:49:43;99401.56;;;5.94;80.24
85545;BME280;75982;52.834;13.846;2024-03-29T03:52:09;99408.50;;;5.93;79.17
85545;BME280;75982;52.834;13.846;2024-03-29T03:54:35;99410.94;;;5.96;79.12
85545;BME280;75982;52.834;13.846;2024-03-29T03:57:00;99410.59;;;6.02;78.47
85545;BME280;75982;52.834;13.846;2024-03-29T03:59:26;99418.69;;;5.96;79.97
85545;BME280;75982;52.834;13.846;2024-03-29T04:01:51;99417.25;;;5.91;79.67
85545;BME280;75982;52.834;13.846;2024-03-29T04:04:17;99404.44;;;5.89;79.31
85545;BME280;75982;52.834;13.846;2024-03-29T04:06:44;99408.47;;;5.77;79.42
85545;BME280;75982;52.834;13.846;2024-03-29T04:09:09;99408.31;;;5.80;79.90
85545;BME280;75982;52.834;13.846;2024-03-29T04:11:35;99393.03;;;5.76;79.62
85545;BME280;75982;52.834;13.846;2024-03-29T04:14:03;99388.78;;;5.75;80.06
85545;BME280;75982;52.834;13.846;2024-03-29T04:16:29;99405.97;;;5.76;79.72
85545;BME280;75982;52.834;13.846;2024-03-29T04:18:54;99405.13;;;5.75;80.06
85545;BME280;75982;52.834;13.846;2024-03-29T04:21:20;99412.03;;;5.75;79.68
85545;BME280;75982;52.834;13.846;2024-03-29T04:23:46;99416.38;;;5.74;79.82
85545;BME280;75982;52.834;13.846;2024-03-29T04:26:11;99413.69;;;5.60;79.71
85545;BME280;75982;52.834;13.846;2024-03-29T04:28:37;99417.94;;;5.61;79.67
85545;BME280;75982;52.834;13.846;2024-03-29T04:31:03;99415.38;;;5.61;79.87
85545;BME280;75982;52.834;13.846;2024-03-29T04:33:28;99419.09;;;5.56;80.05
85545;BME280;75982;52.834;13.846;2024-03-29T04:36:03;99415.78;;;5.54;79.98
85545;BME280;75982;52.834;13.846;2024-03-29T04:38:30;99407.19;;;5.53;80.06
85545;BME280;75982;52.834;13.846;2024-03-29T04:40:59;99400.09;;;5.57;79.81
85545;BME280;75982;52.834;13.846;2024-03-29T04:43:26;99396.84;;;5.53;79.87
85545;BME280;75982;52.834;13.846;2024-03-29T04:46:11;99399.66;;;5.49;79.71
85545;BME280;75982;52.834;13.846;2024-03-29T04:48:37;99388.41;;;5.50;79.77
85545;BME280;75982;52.834;13.846;2024-03-29T04:51:04;99406.50;;;5.50;80.09
85545;BME280;75982;52.834;13.846;2024-03-29T04:53:30;99413.50;;;5.48;79.87
85545;BME280;75982;52.834;13.846;2024-03-29T04:55:56;99412.50;;;5.50;79.87
85545;BME280;75982;52.834;13.846;2024-03-29T04:58:22;99407.78;;;5.58;79.05
85545;BME280;75982;52.834;13.846;2024-03-29T05:00:49;99403.97;;;5.65;78.55
85545;BME280;75982;52.834;13.846;2024-03-29T05:03:17;99406.59;;;5.64;78.95
85545;BME280;75982;52.834;13.846;2024-03-29T05:05:43;99419.13;;;5.71;78.42
85545;BME280;75982;52.834;13.846;2024-03-29T05:08:09;99414.63;;;5.75;78.69
85545;BME280;75982;52.834;13.846;2024-03-29T05:10:35;99411.56;;;5.84;77.70
85545;BME280;75982;52.834;13.846;2024-03-29T05:13:00;99408.84;;;5.87;77.71
85545;BME280;75982;52.834;13.846;2024-03-29T05:15:26;99411.34;;;5.89;77.92
85545;BME280;75982;52.834;13.846;2024-03-29T05:17:51;99410.34;;;5.91;77.70
85545;BME280;75982;52.834;13.846;2024-03-29T05:20:17;99407.59;;;5.94;77.49
85545;BME280;75982;52.834;13.846;2024-03-29T05:22:42;99400.00;;;5.91;77.45
85545;BME280;75982;52.834;13.846;2024-03-29T05:25:08;99399.16;;;5.91;76.37
85545;BME280;75982;52.834;13.846;2024-03-29T05:27:34;99400.00;;;5.91;77.25
85545;BME280;75982;52.834;13.846;2024-03-29T05:29:59;99405.84;;;5.95;76.44
85545;BME280;75982;52.834;13.846;2024-03-29T05:32:25;99426.34;;;5.98;76.57
85545;BME280;75982;52.834;13.846;2024-03-29T05:34:51;99456.31;;;6.02;76.74
85545;BME280;75982;52.834;13.846;2024-03-29T05:37:17;99457.75;;;6.07;76.12
85545;BME280;75982;52.834;13.846;2024-03-29T05:39:42;99448.97;;;6.10;75.89
85545;BME280;75982;52.834;13.846;2024-03-29T05:42:08;99438.72;;;6.24;74.75
85545;BME280;75982;52.834;13.846;2024-03-29T05:44:35;99445.75;;;6.22;75.72
85545;BME280;75982;52.834;13.846;2024-03-29T05:47:01;99448.16;;;6.25;75.11
85545;BME280;75982;52.834;13.846;2024-03-29T05:49:26;99447.31;;;6.24;74.83
85545;BME280;75982;52.834;13.846;2024-03-29T05:51:52;99450.31;;;6.33;74.72
85545;BME280;75982;52.834;13.846;2024-03-29T05:54:17;99434.88;;;6.31;74.67
85545;BME280;75982;52.834;13.846;2024-03-29T05:56:43;99444.22;;;6.34;74.75
85545;BME280;75982;52.834;13.846;2024-03-29T05:59:08;99437.88;;;6.39;74.37
85545;BME280;75982;52.834;13.846;2024-03-29T06:01:34;99437.03;;;6.39;73.95
85545;BME280;75982;52.834;13.846;2024-03-29T06:04:00;99436.78;;;6.43;74.63
85545;BME280;75982;52.834;13.846;2024-03-29T06:06:25;99427.84;;;6.49;73.95
85545;BME280;75982;52.834;13.846;2024-03-29T06:08:53;99433.03;;;6.49;74.03
85545;BME280;75982;52.834;13.846;2024-03-29T06:11:19;99428.50;;;6.52;73.69
85545;BME280;75982;52.834;13.846;2024-03-29T06:13:44;99436.59;;;6.62;73.40
85545;BME280;75982;52.834;13.846;2024-03-29T06:16:10;99449.28;;;6.66;73.20
85545;BME280;75982;52.834;13.846;2024-03-29T06:18:35;99444.16;;;6.65;73.19
85545;BME280;75982;52.834;13.846;2024-03-29T06:21:01;99445.16;;;6.78;72.72
85545;BME280;75982;52.834;13.846;2024-03-29T06:23:30;99448.59;;;6.78;72.72
85545;BME280;75982;52.834;13.846;2024-03-29T06:25:55;99441.94;;;6.89;72.73
85545;BME280;75982;52.834;13.846;2024-03-29T06:28:21;99459.66;;;6.96;72.15
85545;BME280;75982;52.834;13.846;2024-03-29T06:30:47;99457.63;;;7.01;72.06
85545;BME280;75982;52.834;13.846;2024-03-29T06:33:12;99454.03;;;7.18;71.21
85545;BME280;75982;52.834;13.846;2024-03-29T06:35:38;99468.78;;;7.17;71.12
85545;BME280;75982;52.834;13.846;2024-03-29T06:38:04;99456.03;;;7.29;70.90
85545;BME280;75982;52.834;13.846;2024-03-29T06:40:29;99466.47;;;7.27;70.28
85545;BME280;75982;52.834;13.846;2024-03-29T06:42:55;99475.56;;;7.34;69.60
85545;BME280;75982;52.834;13.846;2024-03-29T06:45:20;99476.41;;;7.35;69.48
85545;BME280;75982;52.834;13.846;2024-03-29T06:47:46;99473.28;;;7.44;68.61
85545;BME280;75982;52.834;13.846;2024-03-29T06:50:11;99475.13;;;7.56;68.71
85545;BME280;75982;52.834;13.846;2024-03-29T06:52:37;99479.59;;;7.68;69.01
85545;BME280;75982;52.834;13.846;2024-03-29T06:55:03;99477.19;;;7.65;68.04
85545;BME280;75982;52.834;13.846;2024-03-29T06:57:28;99476.19;;;7.82;68.48
85545;BME280;75982;52.834;13.846;2024-03-29T06:59:54;99490.22;;;8.06;66.84
85545;BME280;75982;52.834;13.846;2024-03-29T07:02:19;99499.75;;;8.19;67.89
85545;BME280;75982;52.834;13.846;2024-03-29T07:04:45;99518.59;;;8.23;67.39
85545;BME280;75982;52.834;13.846;2024-03-29T07:07:11;99525.47;;;8.38;66.07
85545;BME280;75982;52.834;13.846;2024-03-29T07:09:36;99529.59;;;8.55;65.86
85545;BME280;75982;52.834;13.846;2024-03-29T07:12:02;99527.22;;;8.38;65.08
85545;BME280;75982;52.834;13.846;2024-03-29T07:14:27;99509.16;;;8.63;64.16
85545;BME280;75982;52.834;13.846;2024-03-29T07:16:53;99515.13;;;8.51;64.70
85545;BME280;75982;52.834;13.846;2024-03-29T07:19:19;99512.59;;;8.63;64.00
85545;BME280;75982;52.834;13.846;2024-03-29T07:21:45;99508.31;;;8.62;63.56
85545;BME280;75982;52.834;13.846;2024-03-29T07:24:11;99498.78;;;8.90;63.24
85545;BME280;75982;52.834;13.846;2024-03-29T07:26:36;99499.63;;;9.03;63.24
85545;BME280;75982;52.834;13.846;2024-03-29T07:29:02;99493.84;;;9.12;62.00
85545;BME280;75982;52.834;13.846;2024-03-29T07:31:27;99505.13;;;9.25;61.85
85545;BME280;75982;52.834;13.846;2024-03-29T07:33:53;99515.53;;;9.25;61.89
85545;BME280;75982;52.834;13.846;2024-03-29T07:36:19;99527.41;;;9.54;61.18
85545;BME280;75982;52.834;13.846;2024-03-29T07:38:44;99537.31;;;9.62;60.10
85545;BME280;75982;52.834;13.846;2024-03-29T07:41:10;99521.41;;;9.66;60.36
85545;BME280;75982;52.834;13.846;2024-03-29T07:43:40;99505.44;;;9.71;59.74
85545;BME280;75982;52.834;13.846;2024-03-29T07:46:06;99508.16;;;9.82;59.78
85545;BME280;75982;52.834;13.846;2024-03-29T07:48:32;99512.63;;;10.05;58.77
85545;BME280;75982;52.834;13.846;2024-03-29T07:50:58;99511.50;;;10.22;58.75
85545;BME280;75982;52.834;13.846;2024-03-29T07:53:23;99536.22;;;10.53;58.25
85545;BME280;75982;52.834;13.846;2024-03-29T07:55:49;99553.59;;;10.89;58.64
85545;BME280;75982;52.834;13.846;2024-03-29T07:58:15;99543.94;;;10.78;58.14
85545;BME280;75982;52.834;13.846;2024-03-29T08:00:41;99529.16;;;11.02;57.19
85545;BME280;75982;52.834;13.846;2024-03-29T08:03:06;99516.28;;;10.88;56.63
85545;BME280;75982;52.834;13.846;2024-03-29T08:05:32;99515.84;;;10.94;55.33
85545;BME280;75982;52.834;13.846;2024-03-29T08:07:57;99522.88;;;10.81;56.17
85545;BME280;75982;52.834;13.846;2024-03-29T08:10:23;99517.38;;;10.73;56.35
85545;BME280;75982;52.834;13.846;2024-03-29T08:12:48;99523.22;;;11.00;56.11
85545;BME280;75982;52.834;13.846;2024-03-29T08:15:14;99543.88;;;11.15;55.61
85545;BME280;75982;52.834;13.846;2024-03-29T08:17:40;99542.16;;;11.26;56.38
85545;BME280;75982;52.834;13.846;2024-03-29T08:20:06;99555.25;;;11.37;55.52
85545;BME280;75982;52.834;13.846;2024-03-29T08:22:31;99563.63;;;11.30;53.28
85545;BME280;75982;52.834;13.846;2024-03-29T08:24:57;99563.06;;;11.37;55.62
85545;BME280;75982;52.834;13.846;2024-03-29T08:27:22;99557.44;;;11.54;54.50
85545;BME280;75982;52.834;13.846;2024-03-29T08:29:48;99547.88;;;11.66;54.66
85545;BME280;75982;52.834;13.846;2024-03-29T08:32:13;99542.06;;;11.63;54.88
85545;BME280;75982;52.834;13.846;2024-03-29T08:34:39;99554.75;;;11.32;55.38
85545;BME280;75982;52.834;13.846;2024-03-29T08:37:05;99557.63;;;11.75;54.98
85545;BME280;75982;52.834;13.846;2024-03-29T08:39:31;99568.22;;;11.85;53.98
85545;BME280;75982;52.834;13.846;2024-03-29T08:41:57;99560.97;;;11.77;54.10
85545;BME280;75982;52.834;13.846;2024-03-29T08:44:22;99550.22;;;11.58;54.89
85545;BME280;75982;52.834;13.846;2024-03-29T08:46:48;99561.91;;;11.76;53.57
85545;BME280;75982;52.834;13.846;2024-03-29T08:49:13;99556.44;;;11.44;55.27
85545;BME280;75982;52.834;13.846;2024-03-29T08:51:39;99556.59;;;11.78;54.46
85545;BME280;75982;52.834;13.846;2024-03-29T08:54:04;99559.91;;;11.91;54.58
85545;BME280;75982;52.834;13.846;2024-03-29T08:56:33;99563.63;;;11.99;54.50
85545;BME280;75982;52.834;13.846;2024-03-29T08:58:59;99568.84;;;11.99;54.36
85545;BME280;75982;52.834;13.846;2024-03-29T09:01:24;99570.97;;;11.94;54.45
85545;BME280;75982;52.834;13.846;2024-03-29T09:03:50;99582.47;;;11.81;54.83
85545;BME280;75982;52.834;13.846;2024-03-29T09:06:16;99586.38;;;11.86;54.65
85545;BME280;75982;52.834;13.846;2024-03-29T09:08:41;99608.44;;;11.82;53.88
85545;BME280;75982;52.834;13.846;2024-03-29T09:11:07;99596.47;;;11.91;53.90
85545;BME280;75982;52.834;13.846;2024-03-29T09:13:32;99600.25;;;11.87;55.00
85545;BME280;75982;52.834;13.846;2024-03-29T09:15:58;99588.03;;;11.87;55.57
85545;BME280;75982;52.834;13.846;2024-03-29T09:18:23;99581.25;;;11.74;56.00
85545;BME280;75982;52.834;13.846;2024-03-29T09:20:59;99575.69;;;11.78;55.36
85545;BME280;75982;52.834;13.846;2024-03-29T09:23:26;99566.00;;;12.02;55.44
85545;BME280;75982;52.834;13.846;2024-03-29T09:25:51;99555.03;;;11.75;55.86
85545;BME280;75982;52.834;13.846;2024-03-29T09:28:17;99544.41;;;12.12;56.19
85545;BME280;75982;52.834;13.846;2024-03-29T09:30:43;99523.25;;;12.26;55.40
85545;BME280;75982;52.834;13.846;2024-03-29T09:33:08;99528.38;;;12.38;54.47
85545;BME280;75982;52.834;13.846;2024-03-29T09:35:34;99542.22;;;12.61;54.32
85545;BME280;75982;52.834;13.846;2024-03-29T09:37:59;99530.75;;;12.84;55.11
85545;BME280;75982;52.834;13.846;2024-03-29T09:40:26;99544.63;;;12.96;53.76
85545;BME280;75982;52.834;13.846;2024-03-29T09:42:51;99547.59;;;13.14;53.29
85545;BME280;75982;52.834;13.846;2024-03-29T09:45:19;99544.97;;;13.14;53.12
85545;BME280;75982;52.834;13.846;2024-03-29T09:47:46;99543.13;;;12.82;52.85
85545;BME280;75982;52.834;13.846;2024-03-29T09:50:12;99536.41;;;13.00;54.30
85545;BME280;75982;52.834;13.846;2024-03-29T09:52:39;99535.94;;;13.07;53.71
85545;BME280;75982;52.834;13.846;2024-03-29T09:55:05;99541.28;;;13.16;52.88
85545;BME280;75982;52.834;13.846;2024-03-29T09:57:31;99544.22;;;13.23;53.12
85545;BME280;75982;52.834;13.846;2024-03-29T09:59:57;99550.91;;;13.47;52.88
85545;BME280;75982;52.834;13.846;2024-03-29T10:02:26;99546.50;;;13.16;52.87
85545;BME280;75982;52.834;13.846;2024-03-29T10:04:53;99544.47;;;13.09;53.21
85545;BME280;75982;52.834;13.846;2024-03-29T10:07:21;99541.41;;;13.03;53.18
85545;BME280;75982;52.834;13.846;2024-03-29T10:09:48;99536.31;;;13.02;53.09
85545;BME280;75982;52.834;13.846;2024-03-29T10:12:13;99524.44;;;12.98;52.98
85545;BME280;75982;52.834;13.846;2024-03-29T10:14:49;99524.63;;;13.06;51.99
85545;BME280;75982;52.834;13.846;2024-03-29T10:17:18;99532.00;;;13.44;52.19
85545;BME280;75982;52.834;13.846;2024-03-29T10:19:45;99533.84;;;13.53;52.46
85545;BME280;75982;52.834;13.846;2024-03-29T10:22:11;99529.84;;;14.00;50.65
85545;BME280;75982;52.834;13.846;2024-03-29T10:24:37;99535.19;;;13.47;50.44
85545;BME280;75982;52.834;13.846;2024-03-29T10:27:03;99533.84;;;13.74;50.15
85545;BME280;75982;52.834;13.846;2024-03-29T10:29:29;99531.00;;;14.17;51.45
85545;BME280;75982;52.834;13.846;2024-03-29T10:31:55;99526.25;;;14.31;48.54
85545;BME280;75982;52.834;13.846;2024-03-29T10:34:21;99523.47;;;14.63;49.57
85545;BME280;75982;52.834;13.846;2024-03-29T10:36:47;99520.22;;;14.90;47.79
85545;BME280;75982;52.834;13.846;2024-03-29T10:39:13;99541.88;;;14.73;47.84
85545;BME280;75982;52.834;13.846;2024-03-29T10:41:40;99513.28;;;14.30;48.52
85545;BME280;75982;52.834;13.846;2024-03-29T10:44:08;99516.41;;;14.54;47.23
85545;BME280;75982;52.834;13.846;2024-03-29T10:46:36;99519.06;;;14.64;48.41
85545;BME280;75982;52.834;13.846;2024-03-29T10:49:03;99517.41;;;14.63;48.68
85545;BME280;75982;52.834;13.846;2024-03-29T10:51:29;99508.47;;;14.65;48.16
85545;BME280;75982;52.834;13.846;2024-03-29T10:53:56;99508.59;;;14.33;48.19
85545;BME280;75982;52.834;13.846;2024-03-29T10:56:24;99510.97;;;14.76;47.80
85545;BME280;75982;52.834;13.846;2024-03-29T10:58:55;99523.69;;;14.90;47.20
85545;BME280;75982;52.834;13.846;2024-03-29T11:01:23;99505.59;;;14.87;47.18
85545;BME280;75982;52.834;13.846;2024-03-29T11:03:54;99517.69;;;14.60;48.25
85545;BME280;75982;52.834;13.846;2024-03-29T11:06:26;99507.34;;;14.68;48.34
85545;BME280;75982;52.834;13.846;2024-03-29T11:08:54;99508.59;;;14.73;48.14
85545;BME280;75982;52.834;13.846;2024-03-29T11:11:22;99483.19;;;14.74;49.35
85545;BME280;75982;52.834;13.846;2024-03-29T11:14:05;99504.13;;;14.45;49.44
85545;BME280;75982;52.834;13.846;2024-03-29T11:16:33;99489.94;;;14.67;50.13
85545;BME280;75982;52.834;13.846;2024-03-29T11:18:59;99500.22;;;14.09;51.86
85545;BME280;75982;52.834;13.846;2024-03-29T11:21:25;99490.66;;;14.29;52.57
85545;BME280;75982;52.834;13.846;2024-03-29T11:23:53;99488.56;;;14.63;51.53
85545;BME280;75982;52.834;13.846;2024-03-29T11:26:19;99486.44;;;14.37;53.00
85545;BME280;75982;52.834;13.846;2024-03-29T11:28:52;99480.84;;;14.71;52.10
85545;BME280;75982;52.834;13.846;2024-03-29T11:31:22;99480.88;;;15.09;51.53
85545;BME280;75982;52.834;13.846;2024-03-29T11:33:48;99467.03;;;14.88;51.21
85545;BME280;75982;52.834;13.846;2024-03-29T11:36:20;99464.00;;;14.92;52.67
85545;BME280;75982;52.834;13.846;2024-03-29T11:38:46;99436.94;;;15.02;51.68
85545;BME280;75982;52.834;13.846;2024-03-29T11:41:20;99426.19;;;14.95;51.46
85545;BME280;75982;52.834;13.846;2024-03-29T11:43:45;99419.53;;;15.01;50.42
85545;BME280;75982;52.834;13.846;2024-03-29T11:46:14;99412.38;;;14.64;52.58
85545;BME280;75982;52.834;13.846;2024-03-29T11:48:40;99416.22;;;14.51;51.34
85545;BME280;75982;52.834;13.846;2024-03-29T11:51:07;99417.59;;;15.22;51.13
85545;BME280;75982;52.834;13.846;2024-03-29T11:53:33;99424.59;;;15.31;50.77
85545;BME280;75982;52.834;13.846;2024-03-29T11:56:00;99414.91;;;15.41;50.83
85545;BME280;75982;52.834;13.846;2024-03-29T11:58:27;99420.34;;;15.20;50.67
85545;BME280;75982;52.834;13.846;2024-03-29T12:00:54;99413.69;;;15.26;50.52
85545;BME280;75982;52.834;13.846;2024-03-29T12:03:21;99411.16;;;15.53;49.54
85545;BME280;75982;52.834;13.846;2024-03-29T12:05:48;99415.88;;;15.59;48.85
85545;BME280;75982;52.834;13.846;2024-03-29T12:08:14;99424.00;;;15.66;49.53
85545;BME280;75982;52.834;13.846;2024-03-29T12:10:40;99424.16;;;15.45;48.57
85545;BME280;75982;52.834;13.846;2024-03-29T12:13:07;99430.09;;;15.47;49.04
85545;BME280;75982;52.834;13.846;2024-03-29T12:15:33;99413.69;;;15.35;48.50
85545;BME280;75982;52.834;13.846;2024-03-29T12:18:01;99413.88;;;15.05;49.26
85545;BME280;75982;52.834;13.846;2024-03-29T12:20:28;99428.91;;;15.03;49.62
85545;BME280;75982;52.834;13.846;2024-03-29T12:22:54;99428.75;;;15.24;48.43
85545;BME280;75982;52.834;13.846;2024-03-29T12:25:20;99430.25;;;15.55;49.83
85545;BME280;75982;52.834;13.846;2024-03-29T12:27:47;99422.44;;;15.73;50.09
85545;BME280;75982;52.834;13.846;2024-03-29T12:30:13;99426.88;;;15.72;49.28
85545;BME280;75982;52.834;13.846;2024-03-29T12:32:39;99441.25;;;15.68;50.10
85545;BME280;75982;52.834;13.846;2024-03-29T12:37:34;99463.84;;;15.23;50.79
85545;BME280;75982;52.834;13.846;2024-03-29T12:40:00;99449.09;;;15.22;50.01
85545;BME280;75982;52.834;13.846;2024-03-29T12:42:25;99443.28;;;14.89;49.37
85545;BME280;75982;52.834;13.846;2024-03-29T12:44:51;99441.91;;;15.14;49.56
85545;BME280;75982;52.834;13.846;2024-03-29T12:47:17;99438.59;;;14.74;49.42
85545;BME280;75982;52.834;13.846;2024-03-29T12:49:43;99441.22;;;15.03;50.19
85545;BME280;75982;52.834;13.846;2024-03-29T12:52:09;99433.50;;;15.01;48.78